sensor_id;sensor_type;location;lat;lon;timestamp;P1;durP1;ratioP1;P2;durP2;ratioP2
12593;SDS011;6362;50.208;9.182;2023-03-01T00:01:39;11.52;;;6.80;;
12593;SDS011;6362;50.208;9.182;2023-03-01T00:04:04;12.98;;;7.68;;
12593;SDS011;6362;50.208;9.182;2023-03-01T00:06:30;12.45;;;7.15;;
12593;SDS011;6362;50.208;9.182;2023-03-01T00:08:55;11.77;;;6.70;;
12593;SDS011;6362;50.208;9.182;2023-03-01T00:11:25;13.50;;;7.35;;
12593;SDS011;6362;50.208;9.182;2023-03-01T00:13:53;11.77;;;7.68;;
12593;SDS011;6362;50.208;9.182;2023-03-01T00:16:25;12.23;;;7.10;;
12593;SDS011;6362;50.208;9.182;2023-03-01T00:18:53;14.57;;;7.63;;
12593;SDS011;6362;50.208;9.182;2023-03-01T00:21:20;11.98;;;7.72;;
12593;SDS011;6362;50.208;9.182;2023-03-01T00:23:47;13.65;;;7.15;;
12593;SDS011;6362;50.208;9.182;2023-03-01T00:26:14;12.35;;;8.13;;
12593;SDS011;6362;50.208;9.182;2023-03-01T00:28:40;11.98;;;7.32;;
12593;SDS011;6362;50.208;9.182;2023-03-01T00:31:08;13.20;;;6.82;;
12593;SDS011;6362;50.208;9.182;2023-03-01T00:33:35;14.40;;;7.85;;
12593;SDS011;6362;50.208;9.182;2023-03-01T00:36:00;15.25;;;8.25;;
12593;SDS011;6362;50.208;9.182;2023-03-01T00:38:26;14.13;;;7.53;;
12593;SDS011;6362;50.208;9.182;2023-03-01T00:40:52;12.35;;;7.88;;
12593;SDS011;6362;50.208;9.182;2023-03-01T00:43:18;12.35;;;7.10;;
12593;SDS011;6362;50.208;9.182;2023-03-01T00:45:44;13.93;;;7.93;;
12593;SDS011;6362;50.208;9.182;2023-03-01T00:48:09;12.63;;;7.90;;
12593;SDS011;6362;50.208;9.182;2023-03-01T00:50:35;16.42;;;8.63;;
12593;SDS011;6362;50.208;9.182;2023-03-01T00:53:00;12.23;;;7.22;;
12593;SDS011;6362;50.208;9.182;2023-03-01T00:55:26;14.48;;;8.02;;
12593;SDS011;6362;50.208;9.182;2023-03-01T00:57:51;11.57;;;8.05;;
12593;SDS011;6362;50.208;9.182;2023-03-01T01:00:17;16.67;;;8.85;;
12593;SDS011;6362;50.208;9.182;2023-03-01T01:02:43;15.85;;;8.18;;
12593;SDS011;6362;50.208;9.182;2023-03-01T01:05:09;14.93;;;8.68;;
12593;SDS011;6362;50.208;9.182;2023-03-01T01:07:34;12.95;;;8.32;;
12593;SDS011;6362;50.208;9.182;2023-03-01T01:10:00;16.45;;;9.63;;
12593;SDS011;6362;50.208;9.182;2023-03-01T01:12:25;13.13;;;8.18;;
12593;SDS011;6362;50.208;9.182;2023-03-01T01:14:51;16.05;;;8.02;;
12593;SDS011;6362;50.208;9.182;2023-03-01T01:17:16;12.00;;;7.53;;
12593;SDS011;6362;50.208;9.182;2023-03-01T01:19:42;13.10;;;7.88;;
12593;SDS011;6362;50.208;9.182;2023-03-01T01:22:07;14.50;;;7.95;;
12593;SDS011;6362;50.208;9.182;2023-03-01T01:24:33;14.23;;;7.60;;
12593;SDS011;6362;50.208;9.182;2023-03-01T01:26:58;16.90;;;8.10;;
12593;SDS011;6362;50.208;9.182;2023-03-01T01:29:23;12.18;;;7.63;;
12593;SDS011;6362;50.208;9.182;2023-03-01T01:31:49;13.65;;;7.65;;
12593;SDS011;6362;50.208;9.182;2023-03-01T01:34:16;16.08;;;8.25;;
12593;SDS011;6362;50.208;9.182;2023-03-01T01:36:43;14.77;;;8.20;;
12593;SDS011;6362;50.208;9.182;2023-03-01T01:39:08;15.38;;;7.97;;
12593;SDS011;6362;50.208;9.182;2023-03-01T01:41:38;14.13;;;8.13;;
12593;SDS011;6362;50.208;9.182;2023-03-01T01:44:13;13.90;;;8.23;;
12593;SDS011;6362;50.208;9.182;2023-03-01T01:46:43;12.30;;;7.63;;
12593;SDS011;6362;50.208;9.182;2023-03-01T01:49:55;12.07;;;7.80;;
12593;SDS011;6362;50.208;9.182;2023-03-01T01:52:17;15.68;;;8.80;;
12593;SDS011;6362;50.208;9.182;2023-03-01T01:57:42;14.63;;;8.43;;
12593;SDS011;6362;50.208;9.182;2023-03-01T02:02:48;13.75;;;7.95;;
12593;SDS011;6362;50.208;9.182;2023-03-01T02:05:28;14.40;;;8.75;;
12593;SDS011;6362;50.208;9.182;2023-03-01T02:08:02;17.23;;;8.45;;
12593;SDS011;6362;50.208;9.182;2023-03-01T02:10:28;14.23;;;8.30;;
12593;SDS011;6362;50.208;9.182;2023-03-01T02:12:54;13.57;;;8.57;;
12593;SDS011;6362;50.208;9.182;2023-03-01T02:15:21;14.88;;;8.90;;
12593;SDS011;6362;50.208;9.182;2023-03-01T02:17:47;15.73;;;8.60;;
12593;SDS011;6362;50.208;9.182;2023-03-01T02:22:55;12.80;;;8.18;;
12593;SDS011;6362;50.208;9.182;2023-03-01T02:30:39;19.73;;;10.85;;
12593;SDS011;6362;50.208;9.182;2023-03-01T02:33:25;20.77;;;9.75;;
12593;SDS011;6362;50.208;9.182;2023-03-01T02:35:52;16.70;;;9.95;;
12593;SDS011;6362;50.208;9.182;2023-03-01T02:38:20;16.20;;;9.20;;
12593;SDS011;6362;50.208;9.182;2023-03-01T02:40:46;16.48;;;9.93;;
12593;SDS011;6362;50.208;9.182;2023-03-01T02:43:13;16.35;;;9.82;;
12593;SDS011;6362;50.208;9.182;2023-03-01T02:45:43;15.73;;;9.30;;
12593;SDS011;6362;50.208;9.182;2023-03-01T02:48:13;14.07;;;9.20;;
12593;SDS011;6362;50.208;9.182;2023-03-01T02:50:50;18.52;;;9.57;;
12593;SDS011;6362;50.208;9.182;2023-03-01T02:54:41;13.35;;;8.05;;
12593;SDS011;6362;50.208;9.182;2023-03-01T02:56:53;14.57;;;8.50;;
12593;SDS011;6362;50.208;9.182;2023-03-01T02:59:22;16.50;;;8.30;;
12593;SDS011;6362;50.208;9.182;2023-03-01T03:01:51;13.73;;;7.05;;
12593;SDS011;6362;50.208;9.182;2023-03-01T03:04:18;15.85;;;7.57;;
12593;SDS011;6362;50.208;9.182;2023-03-01T03:06:46;11.32;;;6.85;;
12593;SDS011;6362;50.208;9.182;2023-03-01T03:09:13;14.30;;;7.90;;
12593;SDS011;6362;50.208;9.182;2023-03-01T03:11:40;11.98;;;6.95;;
12593;SDS011;6362;50.208;9.182;2023-03-01T03:14:08;12.13;;;7.18;;
12593;SDS011;6362;50.208;9.182;2023-03-01T03:16:43;12.82;;;7.57;;
12593;SDS011;6362;50.208;9.182;2023-03-01T03:19:10;14.18;;;7.90;;
12593;SDS011;6362;50.208;9.182;2023-03-01T03:21:36;13.48;;;8.20;;
12593;SDS011;6362;50.208;9.182;2023-03-01T03:24:02;16.77;;;10.18;;
12593;SDS011;6362;50.208;9.182;2023-03-01T03:26:28;20.05;;;10.77;;
12593;SDS011;6362;50.208;9.182;2023-03-01T03:28:54;17.02;;;10.10;;
12593;SDS011;6362;50.208;9.182;2023-03-01T03:31:20;19.40;;;10.02;;
12593;SDS011;6362;50.208;9.182;2023-03-01T03:33:46;16.75;;;9.85;;
12593;SDS011;6362;50.208;9.182;2023-03-01T03:36:22;17.60;;;9.40;;
12593;SDS011;6362;50.208;9.182;2023-03-01T03:38:49;16.15;;;8.68;;
12593;SDS011;6362;50.208;9.182;2023-03-01T03:41:15;14.38;;;8.10;;
12593;SDS011;6362;50.208;9.182;2023-03-01T03:43:41;18.05;;;9.25;;
12593;SDS011;6362;50.208;9.182;2023-03-01T03:46:08;15.68;;;9.27;;
12593;SDS011;6362;50.208;9.182;2023-03-01T03:48:36;15.75;;;8.80;;
12593;SDS011;6362;50.208;9.182;2023-03-01T03:51:07;16.20;;;9.18;;
12593;SDS011;6362;50.208;9.182;2023-03-01T03:53:38;18.20;;;10.15;;
12593;SDS011;6362;50.208;9.182;2023-03-01T04:01:45;16.48;;;9.43;;
12593;SDS011;6362;50.208;9.182;2023-03-01T04:04:13;14.77;;;8.50;;
12593;SDS011;6362;50.208;9.182;2023-03-01T04:06:42;14.18;;;8.00;;
12593;SDS011;6362;50.208;9.182;2023-03-01T04:09:08;17.08;;;8.93;;
12593;SDS011;6362;50.208;9.182;2023-03-01T04:11:34;17.10;;;9.07;;
12593;SDS011;6362;50.208;9.182;2023-03-01T04:23:29;16.33;;;9.10;;
12593;SDS011;6362;50.208;9.182;2023-03-01T04:50:07;16.27;;;10.52;;
12593;SDS011;6362;50.208;9.182;2023-03-01T04:52:34;16.85;;;9.63;;
12593;SDS011;6362;50.208;9.182;2023-03-01T04:55:00;16.98;;;9.15;;
12593;SDS011;6362;50.208;9.182;2023-03-01T04:57:26;17.25;;;9.02;;
12593;SDS011;6362;50.208;9.182;2023-03-01T04:59:52;17.23;;;9.75;;
12593;SDS011;6362;50.208;9.182;2023-03-01T05:02:18;16.20;;;10.05;;
12593;SDS011;6362;50.208;9.182;2023-03-01T05:04:43;17.30;;;8.90;;
12593;SDS011;6362;50.208;9.182;2023-03-01T05:07:08;14.73;;;9.00;;
12593;SDS011;6362;50.208;9.182;2023-03-01T05:09:34;14.73;;;8.82;;
12593;SDS011;6362;50.208;9.182;2023-03-01T05:11:59;15.25;;;9.43;;
12593;SDS011;6362;50.208;9.182;2023-03-01T05:20:19;17.90;;;9.73;;
12593;SDS011;6362;50.208;9.182;2023-03-01T05:22:48;14.80;;;9.20;;
12593;SDS011;6362;50.208;9.182;2023-03-01T05:25:14;17.50;;;9.63;;
12593;SDS011;6362;50.208;9.182;2023-03-01T05:27:42;16.15;;;9.73;;
12593;SDS011;6362;50.208;9.182;2023-03-01T05:30:08;16.30;;;8.45;;
12593;SDS011;6362;50.208;9.182;2023-03-01T05:32:47;15.27;;;9.48;;
12593;SDS011;6362;50.208;9.182;2023-03-01T05:35:15;15.90;;;9.63;;
12593;SDS011;6362;50.208;9.182;2023-03-01T05:37:42;17.98;;;9.82;;
12593;SDS011;6362;50.208;9.182;2023-03-01T05:40:13;21.35;;;9.52;;
12593;SDS011;6362;50.208;9.182;2023-03-01T05:42:52;15.77;;;9.77;;
12593;SDS011;6362;50.208;9.182;2023-03-01T05:45:19;15.70;;;8.88;;
12593;SDS011;6362;50.208;9.182;2023-03-01T05:47:46;16.48;;;9.02;;
12593;SDS011;6362;50.208;9.182;2023-03-01T05:50:13;13.80;;;8.82;;
12593;SDS011;6362;50.208;9.182;2023-03-01T05:52:47;16.33;;;8.93;;
12593;SDS011;6362;50.208;9.182;2023-03-01T05:55:18;17.00;;;9.60;;
12593;SDS011;6362;50.208;9.182;2023-03-01T05:57:46;13.45;;;8.38;;
12593;SDS011;6362;50.208;9.182;2023-03-01T06:00:12;18.42;;;10.75;;
12593;SDS011;6362;50.208;9.182;2023-03-01T06:02:39;22.33;;;9.27;;
12593;SDS011;6362;50.208;9.182;2023-03-01T06:05:05;15.70;;;9.43;;
12593;SDS011;6362;50.208;9.182;2023-03-01T06:07:32;15.73;;;9.68;;
12593;SDS011;6362;50.208;9.182;2023-03-01T06:09:58;15.32;;;9.10;;
12593;SDS011;6362;50.208;9.182;2023-03-01T06:12:24;16.95;;;9.57;;
12593;SDS011;6362;50.208;9.182;2023-03-01T06:14:49;17.52;;;9.15;;
12593;SDS011;6362;50.208;9.182;2023-03-01T06:17:15;18.05;;;10.50;;
12593;SDS011;6362;50.208;9.182;2023-03-01T06:19:40;16.42;;;9.20;;
12593;SDS011;6362;50.208;9.182;2023-03-01T06:22:06;16.58;;;8.35;;
12593;SDS011;6362;50.208;9.182;2023-03-01T06:24:32;14.35;;;8.70;;
12593;SDS011;6362;50.208;9.182;2023-03-01T06:26:58;15.00;;;8.85;;
12593;SDS011;6362;50.208;9.182;2023-03-01T06:29:23;14.48;;;9.40;;
12593;SDS011;6362;50.208;9.182;2023-03-01T06:31:49;17.70;;;9.85;;
12593;SDS011;6362;50.208;9.182;2023-03-01T06:34:14;20.05;;;10.32;;
12593;SDS011;6362;50.208;9.182;2023-03-01T06:36:40;17.85;;;9.70;;
12593;SDS011;6362;50.208;9.182;2023-03-01T06:39:14;16.80;;;10.18;;
12593;SDS011;6362;50.208;9.182;2023-03-01T06:41:41;24.92;;;11.40;;
12593;SDS011;6362;50.208;9.182;2023-03-01T06:44:07;15.70;;;9.57;;
12593;SDS011;6362;50.208;9.182;2023-03-01T06:46:32;14.52;;;9.07;;
12593;SDS011;6362;50.208;9.182;2023-03-01T06:48:58;14.27;;;9.32;;
12593;SDS011;6362;50.208;9.182;2023-03-01T06:51:23;19.17;;;10.50;;
12593;SDS011;6362;50.208;9.182;2023-03-01T06:53:48;13.10;;;8.43;;
12593;SDS011;6362;50.208;9.182;2023-03-01T06:56:14;17.88;;;9.75;;
12593;SDS011;6362;50.208;9.182;2023-03-01T06:58:39;14.95;;;9.45;;
12593;SDS011;6362;50.208;9.182;2023-03-01T07:01:06;17.70;;;10.02;;
12593;SDS011;6362;50.208;9.182;2023-03-01T07:03:32;17.98;;;9.50;;
12593;SDS011;6362;50.208;9.182;2023-03-01T07:05:58;15.30;;;9.43;;
12593;SDS011;6362;50.208;9.182;2023-03-01T07:08:23;15.70;;;10.38;;
12593;SDS011;6362;50.208;9.182;2023-03-01T07:10:54;19.88;;;10.32;;
12593;SDS011;6362;50.208;9.182;2023-03-01T07:13:23;24.42;;;13.02;;
12593;SDS011;6362;50.208;9.182;2023-03-01T07:15:48;20.25;;;11.32;;
12593;SDS011;6362;50.208;9.182;2023-03-01T07:18:14;16.45;;;10.20;;
12593;SDS011;6362;50.208;9.182;2023-03-01T07:20:39;16.90;;;9.52;;
12593;SDS011;6362;50.208;9.182;2023-03-01T07:23:06;17.65;;;10.55;;
12593;SDS011;6362;50.208;9.182;2023-03-01T07:25:31;20.52;;;10.30;;
12593;SDS011;6362;50.208;9.182;2023-03-01T07:27:57;17.45;;;9.50;;
12593;SDS011;6362;50.208;9.182;2023-03-01T07:30:23;16.67;;;9.23;;
12593;SDS011;6362;50.208;9.182;2023-03-01T07:32:51;18.40;;;9.52;;
12593;SDS011;6362;50.208;9.182;2023-03-01T07:35:17;14.73;;;10.10;;
12593;SDS011;6362;50.208;9.182;2023-03-01T07:37:42;19.15;;;9.77;;
12593;SDS011;6362;50.208;9.182;2023-03-01T07:40:08;15.85;;;8.57;;
12593;SDS011;6362;50.208;9.182;2023-03-01T07:42:34;18.25;;;9.48;;
12593;SDS011;6362;50.208;9.182;2023-03-01T07:45:00;18.38;;;10.60;;
12593;SDS011;6362;50.208;9.182;2023-03-01T07:47:25;13.27;;;8.52;;
12593;SDS011;6362;50.208;9.182;2023-03-01T07:49:50;18.23;;;9.07;;
12593;SDS011;6362;50.208;9.182;2023-03-01T07:52:16;16.88;;;9.05;;
12593;SDS011;6362;50.208;9.182;2023-03-01T07:54:44;16.15;;;8.77;;
12593;SDS011;6362;50.208;9.182;2023-03-01T07:57:10;18.15;;;9.77;;
12593;SDS011;6362;50.208;9.182;2023-03-01T07:59:36;16.73;;;9.65;;
12593;SDS011;6362;50.208;9.182;2023-03-01T08:02:01;19.98;;;10.20;;
12593;SDS011;6362;50.208;9.182;2023-03-01T08:04:26;16.77;;;9.25;;
12593;SDS011;6362;50.208;9.182;2023-03-01T08:06:54;18.17;;;9.35;;
12593;SDS011;6362;50.208;9.182;2023-03-01T08:09:20;16.70;;;9.13;;
12593;SDS011;6362;50.208;9.182;2023-03-01T08:11:46;17.77;;;9.30;;
12593;SDS011;6362;50.208;9.182;2023-03-01T08:14:11;15.38;;;8.93;;
12593;SDS011;6362;50.208;9.182;2023-03-01T08:16:37;15.85;;;9.52;;
12593;SDS011;6362;50.208;9.182;2023-03-01T08:19:03;13.73;;;8.52;;
12593;SDS011;6362;50.208;9.182;2023-03-01T08:21:32;19.38;;;9.23;;
12593;SDS011;6362;50.208;9.182;2023-03-01T08:24:00;16.58;;;9.20;;
12593;SDS011;6362;50.208;9.182;2023-03-01T08:26:26;13.88;;;8.75;;
12593;SDS011;6362;50.208;9.182;2023-03-01T08:28:51;15.43;;;9.00;;
12593;SDS011;6362;50.208;9.182;2023-03-01T08:33:44;15.10;;;9.27;;
12593;SDS011;6362;50.208;9.182;2023-03-01T08:36:15;15.68;;;9.13;;
12593;SDS011;6362;50.208;9.182;2023-03-01T08:38:42;12.30;;;8.63;;
12593;SDS011;6362;50.208;9.182;2023-03-01T08:41:07;17.27;;;9.45;;
12593;SDS011;6362;50.208;9.182;2023-03-01T08:43:33;13.77;;;9.65;;
12593;SDS011;6362;50.208;9.182;2023-03-01T08:45:58;16.70;;;9.00;;
12593;SDS011;6362;50.208;9.182;2023-03-01T08:48:24;15.93;;;8.95;;
12593;SDS011;6362;50.208;9.182;2023-03-01T08:50:50;14.68;;;9.57;;
12593;SDS011;6362;50.208;9.182;2023-03-01T08:53:15;16.67;;;8.93;;
12593;SDS011;6362;50.208;9.182;2023-03-01T08:55:41;12.60;;;8.82;;
12593;SDS011;6362;50.208;9.182;2023-03-01T08:58:08;14.63;;;8.02;;
12593;SDS011;6362;50.208;9.182;2023-03-01T09:00:33;15.07;;;9.05;;
12593;SDS011;6362;50.208;9.182;2023-03-01T09:02:59;14.13;;;9.00;;
12593;SDS011;6362;50.208;9.182;2023-03-01T09:05:25;16.77;;;10.13;;
12593;SDS011;6362;50.208;9.182;2023-03-01T09:07:50;12.35;;;8.88;;
12593;SDS011;6362;50.208;9.182;2023-03-01T09:10:16;14.15;;;8.93;;
12593;SDS011;6362;50.208;9.182;2023-03-01T09:12:41;16.17;;;9.93;;
12593;SDS011;6362;50.208;9.182;2023-03-01T09:15:07;16.52;;;9.52;;
12593;SDS011;6362;50.208;9.182;2023-03-01T09:17:33;15.80;;;8.98;;
12593;SDS011;6362;50.208;9.182;2023-03-01T09:19:58;15.48;;;8.82;;
12593;SDS011;6362;50.208;9.182;2023-03-01T09:22:24;15.18;;;9.10;;
12593;SDS011;6362;50.208;9.182;2023-03-01T09:24:50;12.82;;;8.15;;
12593;SDS011;6362;50.208;9.182;2023-03-01T09:27:15;15.45;;;9.25;;
12593;SDS011;6362;50.208;9.182;2023-03-01T09:29:43;15.40;;;9.07;;
12593;SDS011;6362;50.208;9.182;2023-03-01T09:32:09;14.82;;;8.77;;
12593;SDS011;6362;50.208;9.182;2023-03-01T09:34:35;18.02;;;9.10;;
12593;SDS011;6362;50.208;9.182;2023-03-01T09:37:23;14.98;;;8.98;;
12593;SDS011;6362;50.208;9.182;2023-03-01T09:39:49;14.07;;;8.32;;
12593;SDS011;6362;50.208;9.182;2023-03-01T09:42:14;14.77;;;8.57;;
12593;SDS011;6362;50.208;9.182;2023-03-01T09:47:32;18.65;;;10.05;;
12593;SDS011;6362;50.208;9.182;2023-03-01T09:52:40;15.10;;;9.25;;
12593;SDS011;6362;50.208;9.182;2023-03-01T09:55:17;14.43;;;8.18;;
12593;SDS011;6362;50.208;9.182;2023-03-01T09:57:53;16.60;;;8.80;;
12593;SDS011;6362;50.208;9.182;2023-03-01T10:00:29;14.48;;;7.63;;
12593;SDS011;6362;50.208;9.182;2023-03-01T10:03:12;15.18;;;8.90;;
12593;SDS011;6362;50.208;9.182;2023-03-01T10:05:52;15.30;;;8.50;;
12593;SDS011;6362;50.208;9.182;2023-03-01T10:11:24;13.15;;;8.35;;
12593;SDS011;6362;50.208;9.182;2023-03-01T10:13:58;13.75;;;7.90;;
12593;SDS011;6362;50.208;9.182;2023-03-01T10:16:47;12.45;;;8.00;;
12593;SDS011;6362;50.208;9.182;2023-03-01T10:19:24;11.10;;;7.10;;
12593;SDS011;6362;50.208;9.182;2023-03-01T10:21:55;13.10;;;8.30;;
12593;SDS011;6362;50.208;9.182;2023-03-01T10:24:27;12.85;;;7.20;;
12593;SDS011;6362;50.208;9.182;2023-03-01T10:27:07;12.43;;;8.50;;
12593;SDS011;6362;50.208;9.182;2023-03-01T10:29:48;14.95;;;7.55;;
12593;SDS011;6362;50.208;9.182;2023-03-01T10:32:21;11.73;;;7.82;;
12593;SDS011;6362;50.208;9.182;2023-03-01T10:34:47;13.52;;;7.25;;
12593;SDS011;6362;50.208;9.182;2023-03-01T10:37:13;11.93;;;7.78;;
12593;SDS011;6362;50.208;9.182;2023-03-01T10:42:26;11.93;;;6.85;;
12593;SDS011;6362;50.208;9.182;2023-03-01T10:44:53;12.02;;;8.07;;
12593;SDS011;6362;50.208;9.182;2023-03-01T10:47:20;12.32;;;8.00;;
12593;SDS011;6362;50.208;9.182;2023-03-01T10:52:26;14.40;;;7.18;;
12593;SDS011;6362;50.208;9.182;2023-03-01T10:54:58;13.48;;;7.75;;
12593;SDS011;6362;50.208;9.182;2023-03-01T10:57:31;12.57;;;7.35;;
12593;SDS011;6362;50.208;9.182;2023-03-01T11:00:20;11.37;;;7.53;;
12593;SDS011;6362;50.208;9.182;2023-03-01T11:02:49;11.85;;;7.53;;
12593;SDS011;6362;50.208;9.182;2023-03-01T11:05:25;12.10;;;7.88;;
12593;SDS011;6362;50.208;9.182;2023-03-01T11:08:00;13.23;;;7.97;;
12593;SDS011;6362;50.208;9.182;2023-03-01T11:10:35;11.40;;;7.40;;
12593;SDS011;6362;50.208;9.182;2023-03-01T11:13:14;15.18;;;7.95;;
12593;SDS011;6362;50.208;9.182;2023-03-01T11:16:01;11.25;;;7.15;;
12593;SDS011;6362;50.208;9.182;2023-03-01T11:18:35;11.80;;;6.82;;
12593;SDS011;6362;50.208;9.182;2023-03-01T11:21:00;11.15;;;6.68;;
12593;SDS011;6362;50.208;9.182;2023-03-01T11:23:28;10.00;;;6.43;;
12593;SDS011;6362;50.208;9.182;2023-03-01T11:25:56;8.45;;;5.95;;
12593;SDS011;6362;50.208;9.182;2023-03-01T11:28:30;9.95;;;6.13;;
12593;SDS011;6362;50.208;9.182;2023-03-01T11:31:04;9.20;;;5.60;;
12593;SDS011;6362;50.208;9.182;2023-03-01T11:36:04;12.75;;;6.50;;
12593;SDS011;6362;50.208;9.182;2023-03-01T11:38:43;11.38;;;7.30;;
12593;SDS011;6362;50.208;9.182;2023-03-01T11:41:19;10.98;;;6.40;;
12593;SDS011;6362;50.208;9.182;2023-03-01T12:05:17;9.98;;;6.78;;
12593;SDS011;6362;50.208;9.182;2023-03-01T12:10:54;8.85;;;6.25;;
12593;SDS011;6362;50.208;9.182;2023-03-01T12:16:20;8.55;;;5.88;;
12593;SDS011;6362;50.208;9.182;2023-03-01T12:27:30;10.02;;;6.13;;
12593;SDS011;6362;50.208;9.182;2023-03-01T12:30:16;8.00;;;5.72;;
12593;SDS011;6362;50.208;9.182;2023-03-01T12:43:47;9.43;;;6.93;;
12593;SDS011;6362;50.208;9.182;2023-03-01T12:51:31;7.95;;;5.70;;
12593;SDS011;6362;50.208;9.182;2023-03-01T12:54:00;8.45;;;6.20;;
12593;SDS011;6362;50.208;9.182;2023-03-01T12:56:32;9.23;;;6.13;;
12593;SDS011;6362;50.208;9.182;2023-03-01T12:59:09;8.80;;;5.57;;
12593;SDS011;6362;50.208;9.182;2023-03-01T13:12:01;8.48;;;5.60;;
12593;SDS011;6362;50.208;9.182;2023-03-01T13:16:55;8.23;;;6.15;;
12593;SDS011;6362;50.208;9.182;2023-03-01T13:19:25;8.02;;;5.20;;
12593;SDS011;6362;50.208;9.182;2023-03-01T13:21:54;10.35;;;5.78;;
12593;SDS011;6362;50.208;9.182;2023-03-01T13:32:23;10.57;;;6.13;;
12593;SDS011;6362;50.208;9.182;2023-03-01T13:34:51;11.13;;;6.35;;
12593;SDS011;6362;50.208;9.182;2023-03-01T13:37:40;8.02;;;5.85;;
12593;SDS011;6362;50.208;9.182;2023-03-01T13:40:07;12.30;;;7.15;;
12593;SDS011;6362;50.208;9.182;2023-03-01T13:42:51;8.10;;;6.85;;
12593;SDS011;6362;50.208;9.182;2023-03-01T13:45:38;11.02;;;7.45;;
12593;SDS011;6362;50.208;9.182;2023-03-01T13:48:38;9.10;;;6.72;;
12593;SDS011;6362;50.208;9.182;2023-03-01T13:51:08;10.20;;;7.35;;
12593;SDS011;6362;50.208;9.182;2023-03-01T13:53:40;10.07;;;7.38;;
12593;SDS011;6362;50.208;9.182;2023-03-01T13:56:14;12.05;;;7.35;;
12593;SDS011;6362;50.208;9.182;2023-03-01T13:58:50;9.98;;;7.50;;
12593;SDS011;6362;50.208;9.182;2023-03-01T14:01:29;9.10;;;6.65;;
12593;SDS011;6362;50.208;9.182;2023-03-01T14:03:57;10.23;;;7.68;;
12593;SDS011;6362;50.208;9.182;2023-03-01T14:06:24;10.50;;;7.35;;
12593;SDS011;6362;50.208;9.182;2023-03-01T14:09:05;10.25;;;7.85;;
12593;SDS011;6362;50.208;9.182;2023-03-01T14:14:48;9.23;;;7.28;;
12593;SDS011;6362;50.208;9.182;2023-03-01T14:17:44;11.15;;;6.88;;
12593;SDS011;6362;50.208;9.182;2023-03-01T14:20:21;10.77;;;6.95;;
12593;SDS011;6362;50.208;9.182;2023-03-01T14:22:50;11.13;;;7.40;;
12593;SDS011;6362;50.208;9.182;2023-03-01T14:25:23;9.93;;;7.75;;
12593;SDS011;6362;50.208;9.182;2023-03-01T14:27:57;9.65;;;7.13;;
12593;SDS011;6362;50.208;9.182;2023-03-01T14:33:17;10.32;;;7.38;;
12593;SDS011;6362;50.208;9.182;2023-03-01T14:41:01;12.35;;;8.05;;
12593;SDS011;6362;50.208;9.182;2023-03-01T14:43:34;10.95;;;6.82;;
12593;SDS011;6362;50.208;9.182;2023-03-01T14:46:01;9.13;;;7.13;;
12593;SDS011;6362;50.208;9.182;2023-03-01T14:48:27;12.80;;;8.52;;
12593;SDS011;6362;50.208;9.182;2023-03-01T14:50:57;11.60;;;7.68;;
12593;SDS011;6362;50.208;9.182;2023-03-01T14:53:25;12.75;;;8.15;;
12593;SDS011;6362;50.208;9.182;2023-03-01T14:55:55;9.60;;;7.72;;
12593;SDS011;6362;50.208;9.182;2023-03-01T14:58:23;13.32;;;8.15;;
12593;SDS011;6362;50.208;9.182;2023-03-01T15:00:51;9.45;;;7.28;;
12593;SDS011;6362;50.208;9.182;2023-03-01T15:06:08;11.57;;;7.45;;
12593;SDS011;6362;50.208;9.182;2023-03-01T15:08:36;12.35;;;8.00;;
12593;SDS011;6362;50.208;9.182;2023-03-01T15:13:39;12.82;;;7.88;;
12593;SDS011;6362;50.208;9.182;2023-03-01T15:16:06;13.63;;;8.80;;
12593;SDS011;6362;50.208;9.182;2023-03-01T15:18:32;11.80;;;7.97;;
12593;SDS011;6362;50.208;9.182;2023-03-01T15:21:32;11.00;;;8.02;;
12593;SDS011;6362;50.208;9.182;2023-03-01T15:29:04;13.25;;;9.23;;
12593;SDS011;6362;50.208;9.182;2023-03-01T15:31:42;16.08;;;10.05;;
12593;SDS011;6362;50.208;9.182;2023-03-01T15:34:08;14.13;;;9.20;;
12593;SDS011;6362;50.208;9.182;2023-03-01T15:36:54;12.65;;;8.45;;
12593;SDS011;6362;50.208;9.182;2023-03-01T15:42:03;14.55;;;10.05;;
12593;SDS011;6362;50.208;9.182;2023-03-01T15:44:31;16.45;;;10.00;;
12593;SDS011;6362;50.208;9.182;2023-03-01T15:46:59;14.55;;;9.55;;
12593;SDS011;6362;50.208;9.182;2023-03-01T15:49:41;12.35;;;8.73;;
12593;SDS011;6362;50.208;9.182;2023-03-01T15:52:13;17.45;;;10.13;;
12593;SDS011;6362;50.208;9.182;2023-03-01T15:55:01;17.08;;;9.15;;
12593;SDS011;6362;50.208;9.182;2023-03-01T15:57:30;17.27;;;10.90;;
12593;SDS011;6362;50.208;9.182;2023-03-01T15:59:55;15.75;;;9.50;;
12593;SDS011;6362;50.208;9.182;2023-03-01T16:02:21;12.65;;;9.02;;
12593;SDS011;6362;50.208;9.182;2023-03-01T16:04:47;14.55;;;8.73;;
12593;SDS011;6362;50.208;9.182;2023-03-01T16:07:16;13.20;;;8.40;;
12593;SDS011;6362;50.208;9.182;2023-03-01T16:09:42;15.32;;;8.35;;
12593;SDS011;6362;50.208;9.182;2023-03-01T16:12:18;14.23;;;9.60;;
12593;SDS011;6362;50.208;9.182;2023-03-01T16:14:45;15.35;;;9.20;;
12593;SDS011;6362;50.208;9.182;2023-03-01T16:17:11;13.23;;;9.20;;
12593;SDS011;6362;50.208;9.182;2023-03-01T16:19:39;13.02;;;8.35;;
12593;SDS011;6362;50.208;9.182;2023-03-01T16:22:06;14.65;;;8.77;;
12593;SDS011;6362;50.208;9.182;2023-03-01T16:24:31;12.88;;;8.73;;
12593;SDS011;6362;50.208;9.182;2023-03-01T16:26:57;13.32;;;8.50;;
12593;SDS011;6362;50.208;9.182;2023-03-01T16:29:22;13.77;;;8.05;;
12593;SDS011;6362;50.208;9.182;2023-03-01T16:31:48;12.02;;;7.95;;
12593;SDS011;6362;50.208;9.182;2023-03-01T16:34:13;13.40;;;9.00;;
12593;SDS011;6362;50.208;9.182;2023-03-01T16:36:39;16.08;;;9.52;;
12593;SDS011;6362;50.208;9.182;2023-03-01T16:39:04;15.70;;;9.23;;
12593;SDS011;6362;50.208;9.182;2023-03-01T16:41:30;14.45;;;8.95;;
12593;SDS011;6362;50.208;9.182;2023-03-01T16:43:55;13.75;;;8.80;;
12593;SDS011;6362;50.208;9.182;2023-03-01T16:46:25;14.48;;;8.30;;
12593;SDS011;6362;50.208;9.182;2023-03-01T16:48:52;14.50;;;8.35;;
12593;SDS011;6362;50.208;9.182;2023-03-01T16:51:18;18.30;;;9.02;;
12593;SDS011;6362;50.208;9.182;2023-03-01T16:53:45;18.45;;;8.77;;
12593;SDS011;6362;50.208;9.182;2023-03-01T16:56:11;15.18;;;8.38;;
12593;SDS011;6362;50.208;9.182;2023-03-01T16:58:38;13.88;;;8.25;;
12593;SDS011;6362;50.208;9.182;2023-03-01T17:01:06;15.32;;;8.80;;
12593;SDS011;6362;50.208;9.182;2023-03-01T17:03:35;16.05;;;8.85;;
12593;SDS011;6362;50.208;9.182;2023-03-01T17:06:06;17.80;;;8.45;;
12593;SDS011;6362;50.208;9.182;2023-03-01T17:08:33;13.45;;;8.35;;
12593;SDS011;6362;50.208;9.182;2023-03-01T17:11:03;15.88;;;8.38;;
12593;SDS011;6362;50.208;9.182;2023-03-01T17:13:33;15.02;;;8.05;;
12593;SDS011;6362;50.208;9.182;2023-03-01T17:16:00;13.32;;;8.38;;
12593;SDS011;6362;50.208;9.182;2023-03-01T17:18:27;12.85;;;7.53;;
12593;SDS011;6362;50.208;9.182;2023-03-01T17:20:53;16.02;;;9.07;;
12593;SDS011;6362;50.208;9.182;2023-03-01T17:23:18;15.80;;;8.88;;
12593;SDS011;6362;50.208;9.182;2023-03-01T17:25:44;12.80;;;7.90;;
12593;SDS011;6362;50.208;9.182;2023-03-01T17:28:11;15.52;;;8.35;;
12593;SDS011;6362;50.208;9.182;2023-03-01T17:30:37;15.73;;;8.35;;
12593;SDS011;6362;50.208;9.182;2023-03-01T17:33:05;18.70;;;11.93;;
12593;SDS011;6362;50.208;9.182;2023-03-01T17:35:31;15.48;;;10.40;;
12593;SDS011;6362;50.208;9.182;2023-03-01T17:38:01;17.00;;;8.90;;
12593;SDS011;6362;50.208;9.182;2023-03-01T17:40:26;16.08;;;8.35;;
12593;SDS011;6362;50.208;9.182;2023-03-01T17:42:52;11.25;;;7.68;;
12593;SDS011;6362;50.208;9.182;2023-03-01T17:45:18;12.15;;;9.15;;
12593;SDS011;6362;50.208;9.182;2023-03-01T17:47:43;16.95;;;10.90;;
12593;SDS011;6362;50.208;9.182;2023-03-01T17:50:08;16.80;;;10.48;;
12593;SDS011;6362;50.208;9.182;2023-03-01T17:52:34;15.15;;;8.38;;
12593;SDS011;6362;50.208;9.182;2023-03-01T17:55:00;12.63;;;7.65;;